Latest Coastal Weather Observations for Dennes Point

IDT60701

Issued at 10:52 pm EDT Thursday 8 December 2016 (issued every 10 minutes, with the page automatically refreshed every 10 minutes)

About coastal observations | Map of coastal stations | Coastal observations for TAS | Marine services | Other Formats
Station Details ID: 094255 Name: DENNES POINT Lat: -43.06 Lon: 147.36 Height: 5.67 m
Data from the previous 72 hours. | See also: Recent months at Dennes Point
Date/Time
EDT
Temp
°C
Wind Pressure Rain since
9am
mm
Weather Cloud Vis
km
Sea
Height
m
Swell
Dir  Spd
kts
Gust
kts
hPa Trend Height
m
Period
s
Dir
08/10:39pm 12.3 SW 22 35 988.9 - 0.8 - - - - - - -
08/10:30pm 13.2 WSW 22 36 987.9 - 0.8 - - - - - - -
08/10:25pm 13.4 WSW 18 36 987.4 - 0.8 - - - - - - -
08/10:00pm 13.7 W 15 19 986.7 - 0.2 - - - - - - -
08/09:30pm 14.4 W 17 22 985.6 - 0.2 - - - - - - -
08/09:00pm 15.1 W 17 22 984.5 - 0.2 - - - - - - -
08/08:30pm 17.0 W 14 21 983.6 - 0.2 - - - - - - -
08/08:00pm 17.8 W 17 23 982.6 - 0.2 - - - - - - -
08/07:30pm 17.9 NW 12 16 982.1 - 0.2 - - - - - - -
08/07:00pm 19.1 NW 18 25 981.7 - 0.2 - - - - - - -
08/06:30pm 18.8 NNW 14 21 980.9 - 0.2 - - - - - - -
08/06:00pm 19.9 NNW 17 30 980.7 - 0.2 - - - - - - -
08/05:30pm 21.4 NW 14 23 980.4 - 0.2 - - - - - - -
08/05:27pm 21.8 NW 15 23 980.4 - 0.2 - - - - - - -
08/05:00pm 21.0 NNW 23 39 980.7 - 0.2 - - - - - - -
08/04:52pm 21.1 NNW 24 39 980.8 - 0.2 - - - - - - -
08/04:39pm 21.3 NNW 22 29 980.5 - 0.2 - - - - - - -
08/04:35pm 22.7 NNW 22 31 980.4 - 0.2 - - - - - - -
08/04:30pm 20.9 N 22 31 980.5 - 0.2 - - - - - - -
08/04:00pm 21.0 N 23 29 980.6 - 0.2 - - - - - - -
08/03:30pm 21.2 N 21 29 981.1 - 0.2 - - - - - - -
08/03:15pm 21.4 N 19 29 981.5 - 0.2 - - - - - - -
08/03:00pm 21.4 N 17 22 981.9 - 0.2 - - - - - - -
08/02:30pm 20.9 NNE 13 23 982.7 - 0.2 - - - - - - -
08/02:00pm 19.8 NE 10 17 983.8 - 0.2 - - - - - - -
08/01:30pm 19.1 E 10 13 984.7 - 0.2 - - - - - - -
08/01:00pm 18.3 ENE 11 18 985.6 - 0.2 - - - - - - -
08/12:30pm 17.1 NE 9 14 986.7 - 0.2 - - - - - - -
08/12:00pm 16.2 NE 8 12 987.4 - 0.0 - - - - - - -
08/11:30am 15.9 NNE 14 20 988.0 - 0.0 - - - - - - -
08/11:00am 15.2 N 13 19 988.8 - 0.0 - - - - - - -
08/10:30am 15.3 N 17 23 990.3 - 0.0 - - - - - - -
08/10:00am 15.8 NNE 20 25 990.9 - 0.0 - - - - - - -
08/09:30am 14.4 NE 20 25 991.9 - 0.0 - - - - - - -
08/09:00am 14.2 NNE 21 25 992.4 - 0.2 Recent precip. - - - - - -
08/08:30am 13.8 NNE 19 22 994.2 - 0.2 - - - - - - -
08/08:00am 13.6 NNE 19 22 995.9 - 0.0 - - - - - - -
08/07:30am 14.1 NNE 16 20 996.0 - 0.0 - - - - - - -
08/07:00am 13.8 NNE 14 18 996.2 - 0.0 - - - - - - -
08/06:30am 13.7 NNE 20 24 997.2 - 0.0 - - - - - - -
08/06:00am 14.4 NNE 19 25 997.8 - 0.0 - - - - - - -
08/05:30am 14.3 N 19 23 998.2 - 0.0 - - - - - - -
08/05:00am 14.4 NNE 13 16 998.8 - 0.0 - - - - - - -
08/04:30am 14.2 NNE 12 15 999.2 - 0.0 - - - - - - -
08/04:00am 13.9 NNE 13 16 1000.1 - 0.0 - - - - - - -
08/03:30am 13.6 NNE 12 16 1000.7 - 0.0 - - - - - - -
08/03:00am 11.4 SSW 4 6 1001.5 - 0.0 - - - - - - -
08/02:30am 12.2 ENE 3 4 1002.0 - 0.0 - - - - - - -
08/02:00am 11.8 S 1 2 1003.2 - 0.0 - - - - - - -
08/01:30am 11.7 CALM 0 2 1003.9 - 0.0 - - - - - - -
08/01:00am 11.4 CALM 0 0 1004.6 - 0.0 - - - - - - -
08/12:30am 11.8 SSE 2 3 1005.1 - 0.0 - - - - - - -
08/12:00am 11.3 WSW 4 5 1006.1 - 0.0 - - - - - - -
 
Date/Time
EDT
Temp
°C
Wind Pressure Rain since
9am
mm
Weather Cloud Vis
km
Sea
Height
m
Swell
Dir  Spd
kts
Gust
kts
hPa Trend Height
m
Period
s
Dir
07/11:30pm 11.4 SW 4 5 1006.5 - 0.0 - - - - - - -
07/11:00pm 11.4 SW 4 5 1007.2 - 0.0 - - - - - - -
07/10:30pm 12.1 SW 3 4 1006.9 - 0.0 - - - - - - -
07/10:00pm 12.9 CALM 0 0 1007.5 - 0.0 - - - - - - -
07/09:30pm 13.2 SSE 2 4 1007.6 - 0.0 - - - - - - -
07/09:00pm 13.9 S 3 5 1007.6 - 0.0 - - - - - - -
07/08:30pm 14.5 S 5 7 1007.8 - 0.0 - - - - - - -
07/08:00pm 14.8 SE 5 7 1007.9 - 0.0 - - - - - - -
07/07:30pm 14.9 ESE 8 9 1007.9 - 0.0 - - - - - - -
07/07:00pm 15.6 ESE 8 11 1007.8 - 0.0 - - - - - - -
07/06:30pm 15.9 ESE 8 12 1008.0 - 0.0 - - - - - - -
07/06:00pm 16.1 ESE 9 13 1008.0 - 0.0 - - - - - - -
07/05:30pm 15.8 ESE 10 13 1008.3 - 0.0 - - - - - - -
07/05:00pm 16.4 SE 10 14 1008.4 - 0.0 - - - - - - -
07/04:30pm 16.1 ESE 13 17 1008.3 - 0.0 - - - - - - -
07/04:00pm 17.0 ESE 12 19 1008.3 - 0.0 - - - - - - -
07/03:30pm 16.6 ESE 13 18 1008.4 - 0.0 - - - - - - -
07/03:00pm 15.9 ESE 13 17 1008.4 - 0.0 - - - - - - -
07/02:42pm 17.6 SE 12 20 1008.3 - 0.0 - - - - - - -
07/02:30pm 22.7 SW 6 10 1008.4 - 0.0 - - - - - - -
07/02:00pm 22.5 WNW 5 10 1008.5 - 0.0 - - - - - - -
07/01:30pm 20.2 NE 5 8 1008.8 - 0.0 - - - - - - -
07/01:00pm 20.8 N 2 4 1009.0 - 0.0 - - - - - - -
07/12:30pm 19.6 SW 1 2 1009.3 - 0.0 - - - - - - -
07/12:00pm 19.1 N 1 2 1009.5 - 0.0 - - - - - - -
07/11:30am 18.0 WNW 2 6 1009.7 - 0.0 - - - - - - -
07/11:00am 17.3 N 6 8 1009.9 - 0.0 - - - - - - -
07/10:30am 16.5 N 10 14 1010.0 - 0.0 - - - - - - -
07/10:00am 16.1 N 12 16 1010.0 - 0.0 - - - - - - -
07/09:30am 15.7 N 13 16 1010.1 - 0.0 - - - - - - -
07/09:00am 15.2 N 14 17 1010.3 - 0.0 - - - - - - -
07/08:30am 15.3 N 13 15 1010.2 - 0.0 - - - - - - -
07/08:00am 14.8 N 12 16 1010.4 - 0.0 - - - - - - -
07/07:30am 14.4 N 10 13 1010.2 - 0.0 - - - - - - -
07/07:00am 14.0 N 6 8 1010.2 - 0.0 - - - - - - -
07/06:30am 13.4 NNW 7 8 1010.0 - 0.0 - - - - - - -
07/06:00am 13.4 NNW 4 5 1009.8 - 0.0 - - - - - - -
07/05:30am 13.4 N 4 6 1009.6 - 0.0 - - - - - - -
07/05:00am 13.2 N 3 5 1009.4 - 0.0 - - - - - - -
07/04:30am 13.3 NW 5 6 1009.3 - 0.0 - - - - - - -
07/04:00am 12.8 NW 4 5 1009.3 - 0.0 - - - - - - -
07/03:30am 13.5 NNW 5 8 1009.3 - 0.0 - - - - - - -
07/03:00am 12.9 NNW 2 5 1009.3 - 0.0 - - - - - - -
07/02:30am 13.8 N 3 5 1009.6 - 0.0 - - - - - - -
07/02:00am 12.7 W 4 5 1009.7 - 0.0 - - - - - - -
07/01:30am 14.2 WNW 4 9 1009.9 - 0.0 - - - - - - -
07/01:00am 14.3 WNW 14 18 1009.5 - 0.0 - - - - - - -
07/12:30am 13.0 WSW 4 5 1010.0 - 0.0 - - - - - - -
07/12:00am 14.2 W 10 15 1010.1 - 0.0 - - - - - - -
 
Date/Time
EDT
Temp
°C
Wind Pressure Rain since
9am
mm
Weather Cloud Vis
km
Sea
Height
m
Swell
Dir  Spd
kts
Gust
kts
hPa Trend Height
m
Period
s
Dir
06/11:30pm 14.7 WNW 6 11 1010.3 - 0.0 - - - - - - -
06/11:00pm 15.0 WNW 8 11 1010.2 - 0.0 - - - - - - -
06/10:30pm 14.9 WNW 7 10 1010.2 - 0.0 - - - - - - -
06/10:00pm 13.9 W 5 7 1010.3 - 0.0 - - - - - - -
06/09:30pm 14.7 W 5 9 1010.0 - 0.0 - - - - - - -
06/09:00pm 14.1 WSW 4 7 1009.9 - 0.0 - - - - - - -
06/08:30pm 14.6 W 8 12 1009.6 - 0.0 - - - - - - -
06/08:00pm 15.4 WSW 11 15 1009.3 - 0.0 - - - - - - -
06/07:30pm 16.6 WSW 14 17 1009.0 - 0.0 - - - - - - -
06/07:00pm 17.6 W 14 18 1008.7 - 0.0 - - - - - - -
06/06:30pm 18.2 W 13 17 1008.4 - 0.0 - - - - - - -
06/06:00pm 16.1 E 5 6 1008.4 - 0.0 - - - - - - -
06/05:30pm 15.9 E 5 7 1008.4 - 0.0 - - - - - - -
06/05:00pm 16.1 ESE 7 10 1008.4 - 0.0 - - - - - - -
06/04:30pm 16.2 ESE 9 12 1008.7 - 0.0 - - - - - - -
06/04:00pm 15.5 ESE 10 15 1008.7 - 0.0 - - - - - - -
06/03:30pm 14.7 ESE 11 14 1009.1 - 0.0 - - - - - - -
06/03:00pm 14.8 ESE 11 15 1008.8 - 0.0 - - - - - - -
06/02:30pm 15.8 ESE 8 10 1008.7 - 0.0 - - - - - - -
06/02:00pm 15.5 E 7 9 1008.8 - 0.0 - - - - - - -
06/01:30pm 15.6 ESE 8 10 1009.3 - 0.0 - - - - - - -
06/01:00pm 15.7 ESE 8 10 1009.3 - 0.0 - - - - - - -
06/12:30pm 16.5 SW 4 7 1009.6 - 0.0 - - - - - - -
06/12:00pm 15.1 ENE 3 5 1009.7 - 0.0 - - - - - - -
06/11:30am 14.7 E 3 4 1010.1 - 0.0 - - - - - - -
06/11:00am 13.7 E 3 4 1010.3 - 0.0 - - - - - - -
06/10:30am 12.8 E 3 4 1010.4 - 0.0 - - - - - - -
06/10:00am 12.5 E 4 5 1010.4 - 0.0 - - - - - - -
06/09:30am 12.4 ENE 3 5 1010.4 - 0.0 - - - - - - -
06/09:00am 12.2 ENE 4 5 1011.0 - 0.0 - - - - - - -
06/08:30am 11.7 ENE 3 4 1011.3 - 0.0 - - - - - - -
06/08:00am 11.3 CALM 0 1 1011.2 - 0.0 - - - - - - -
06/07:30am 10.9 N 3 4 1011.3 - 0.0 - - - - - - -
06/07:00am 10.7 W 4 7 1011.4 - 0.0 - - - - - - -
06/06:30am 11.1 SW 5 7 1011.3 - 0.0 - - - - - - -
06/06:00am 11.2 SW 4 8 1010.9 - 0.0 - - - - - - -
06/05:30am 11.3 W 6 7 1010.8 - 0.0 - - - - - - -
06/05:00am 11.1 SSW 4 5 1010.7 - 0.0 - - - - - - -
06/04:30am 11.0 SSW 3 5 1010.3 - 0.0 - - - - - - -
06/04:00am 10.6 SW 3 4 1010.1 - 0.0 - - - - - - -
06/03:30am 10.8 SW 3 4 1010.5 - 0.0 - - - - - - -
06/03:00am 11.0 WSW 6 8 1011.1 - 0.0 - - - - - - -
06/02:30am 10.2 SSW 5 5 1010.7 - 0.0 - - - - - - -
06/02:00am 9.7 SSW 5 7 1011.0 - 0.0 - - - - - - -
06/01:30am 9.8 SSW 6 8 1011.1 - 0.0 - - - - - - -
06/01:00am 9.7 S 3 5 1011.2 - 0.0 - - - - - - -
06/12:30am 11.5 SW 1 3 1011.6 - 0.0 - - - - - - -
06/12:00am 12.2 NW 4 6 1012.0 - 0.0 - - - - - - -
 
Date/Time
EDT
Temp
°C
Wind Pressure Rain since
9am
mm
Weather Cloud Vis
km
Sea
Height
m
Swell
Dir  Spd
kts
Gust
kts
hPa Trend Height
m
Period
s
Dir
05/11:30pm 12.7 WNW 9 11 1011.9 - 0.0 - - - - - - -
05/11:00pm 13.4 W 13 16 1011.6 - 0.0 - - - - - - -

Other Formats:

Comma delimited format used in spreadsheet applications
http://www.bom.gov.au/fwo/IDT60701/IDT60701.94988.axf

JavaScript Object Notation format (JSON) in row-major order
http://www.bom.gov.au/fwo/IDT60701/IDT60701.94988.json